TAF Text Data
IDs:
Format:
Raw Decoded Include METAR

Data at: 1310 UTC 10 Jul 2020

KCON 101128Z 1012/1112 VRB03KT P6SM SCT200
  FM101500 14006KT P6SM BKN050
  FM102200 10006KT 6SM -SHRA BR OVC025
  FM110500 09009KT 4SM -SHRA BR OVC003